Time;durP1;ratioP1;P1;durP2;ratioP2;P2;SDS_P1;SDS_P2;PMS_P1;PMS_P2;Temp;Humidity;BMP_temperature;BMP_pressure;BME280_temperature;BME280_humidity;BME280_pressure;Samples;Min_cycle;Max_cycle;Signal;HPM_P1;HPM_P2
2024/01/10 06:47:33;;;;;;;36.70;21.10;;;;;;;-18.49;100.00;102674.56;104810;1277;602771;-68
2024/01/10 06:50:05;;;;;;;72.60;36.30;;;;;;;-18.47;100.00;102675.56;107011;1250;61873;-68
2024/01/10 06:52:34;;;;;;;101.10;50.30;;;;;;;-18.45;100.00;102670.67;106992;1247;60076;-70
2024/01/10 06:55:04;;;;;;;120.90;54.80;;;;;;;-18.36;100.00;102673.55;108405;1251;68107;-70
2024/01/10 06:57:33;;;;;;;113.60;54.60;;;;;;;-18.26;100.00;102667.48;106645;1251;71395;-70
2024/01/10 07:00:06;;;;;;;99.20;47.30;;;;;;;-18.14;100.00;102666.20;108131;1251;211989;-69
2024/01/10 07:02:35;;;;;;;108.50;52.00;;;;;;;-18.08;100.00;102655.85;106974;1248;72836;-69
2024/01/10 07:05:09;;;;;;;66.30;34.70;;;;;;;-17.98;100.00;102656.13;106933;1247;64178;-70
2024/01/10 07:07:38;;;;;;;90.70;44.10;;;;;;;-17.99;100.00;102652.38;106871;1254;61320;-71
2024/01/10 07:10:10;;;;;;;96.60;46.70;;;;;;;-17.91;100.00;102666.93;106900;1248;69757;-69
2024/01/10 07:12:39;;;;;;;91.90;41.90;;;;;;;-17.86;100.00;102665.48;106993;1248;70334;-71
2024/01/10 07:15:09;;;;;;;91.00;41.70;;;;;;;-17.79;100.00;102660.19;106819;1251;68695;-72
2024/01/10 07:17:39;;;;;;;85.40;36.90;;;;;;;-17.78;100.00;102662.55;106848;1251;71885;-71
2024/01/10 07:20:11;;;;;;;128.10;58.70;;;;;;;-17.75;100.00;102659.30;106925;1247;63880;-69
2024/01/10 07:22:43;;;;;;;122.90;54.70;;;;;;;-17.70;100.00;102650.67;106922;1246;61635;-68
2024/01/10 07:25:16;;;;;;;110.20;52.40;;;;;;;-17.66;100.00;102652.45;106999;1249;70862;-68
2024/01/10 07:27:46;;;;;;;132.50;65.20;;;;;;;-17.60;100.00;102653.50;106956;1246;71431;-69
2024/01/10 07:30:15;;;;;;;136.00;69.90;;;;;;;-17.49;100.00;102650.47;106894;1251;70479;-69
2024/01/10 07:32:45;;;;;;;134.40;71.70;;;;;;;-17.37;100.00;102645.19;106917;1254;73167;-69
2024/01/10 07:35:14;;;;;;;127.30;65.30;;;;;;;-17.21;100.00;102641.98;106970;1247;62793;-70
2024/01/10 07:37:44;;;;;;;114.40;54.40;;;;;;;-16.91;100.00;102638.11;107087;1246;61481;-69
2024/01/10 07:40:13;;;;;;;143.60;76.80;;;;;;;-16.69;100.00;102639.93;106943;1259;71461;-70
2024/01/10 07:42:43;;;;;;;140.70;73.20;;;;;;;-16.56;100.00;102636.61;107030;1248;72373;-71
2024/01/10 07:45:12;;;;;;;128.90;63.10;;;;;;;-16.36;100.00;102634.86;106840;1248;68129;-73
2024/01/10 07:47:41;;;;;;;131.70;67.80;;;;;;;-16.34;100.00;102631.67;106992;1248;71177;-69
2024/01/10 07:50:14;;;;;;;133.40;67.70;;;;;;;-16.31;100.00;102632.67;106972;1258;61623;-71
2024/01/10 07:52:44;;;;;;;157.00;75.70;;;;;;;-16.19;100.00;102629.16;106929;1248;59294;-69
2024/01/10 07:55:13;;;;;;;147.90;77.70;;;;;;;-16.14;100.00;102631.00;106821;1247;70579;-74
2024/01/10 07:57:45;;;;;;;124.40;64.90;;;;;;;-16.11;100.00;102635.36;106917;1248;71302;-69
2024/01/10 08:00:15;;;;;;;116.10;62.40;;;;;;;-16.09;100.00;102632.15;106752;1247;70477;-70
2024/01/10 08:02:44;;;;;;;103.20;52.40;;;;;;;-15.78;100.00;102632.86;107083;1248;72060;-68
2024/01/10 08:05:13;;;;;;;120.80;59.90;;;;;;;-15.47;100.00;102634.98;106885;1246;61583;-73
2024/01/10 08:07:42;;;;;;;112.70;55.30;;;;;;;-15.39;100.00;102633.50;107373;1240;61104;-69
2024/01/10 08:10:11;;;;;;;103.10;51.70;;;;;;;-15.43;100.00;102632.58;107360;1242;70777;-70
2024/01/10 08:12:41;;;;;;;106.00;50.80;;;;;;;-15.47;100.00;102628.27;107351;1243;69680;-70
2024/01/10 08:15:11;;;;;;;99.10;47.60;;;;;;;-15.44;100.00;102628.46;107116;1244;69270;-69
2024/01/10 08:17:40;;;;;;;87.90;44.10;;;;;;;-15.46;100.00;102624.33;107210;1243;72732;-70
2024/01/10 08:20:10;;;;;;;99.80;46.10;;;;;;;-15.48;100.00;102622.19;107251;1243;61172;-69
2024/01/10 08:22:40;;;;;;;82.90;40.10;;;;;;;-15.51;100.00;102618.84;107230;1242;58992;-70
2024/01/10 08:25:09;;;;;;;89.90;46.30;;;;;;;-15.40;100.00;102626.54;107316;1242;71958;-69
2024/01/10 08:27:38;;;;;;;65.40;37.30;;;;;;;-15.28;100.00;102630.69;107170;1243;70359;-71
2024/01/10 08:30:11;;;;;;;;;;;;;;;-15.31;100.00;102629.48;107186;1244;69573;-69
2024/01/10 08:32:41;;;;;;;98.90;49.20;;;;;;;-15.34;100.00;102628.43;107437;1251;73763;-69
2024/01/10 08:35:10;;;;;;;67.40;35.80;;;;;;;-15.39;100.00;102626.64;107392;1243;61035;-69
2024/01/10 08:37:44;;;;;;;69.20;36.50;;;;;;;-15.42;100.00;102627.29;107321;1240;60608;-70
2024/01/10 08:40:15;;;;;;;66.30;35.50;;;;;;;-15.45;100.00;102624.35;107408;1244;70086;-69
2024/01/10 08:42:44;;;;;;;42.50;22.30;;;;;;;-15.55;100.00;102630.27;107253;1253;70264;-71
2024/01/10 08:45:14;;;;;;;77.90;40.80;;;;;;;-15.56;100.00;102623.51;107468;1245;67983;-70
2024/01/10 08:47:43;;;;;;;58.60;30.10;;;;;;;-15.53;100.00;102624.73;107414;1242;72035;-72
2024/01/10 08:50:12;;;;;;;40.00;21.30;;;;;;;-15.50;100.00;102620.59;107522;1250;62656;-70
2024/01/10 08:52:41;;;;;;;53.10;27.80;;;;;;;-15.44;100.00;102622.80;107393;1244;61624;-70
2024/01/10 08:55:10;;;;;;;75.70;40.10;;;;;;;-15.35;100.00;102620.86;107239;1240;73208;-70
2024/01/10 08:57:42;;;;;;;80.90;39.20;;;;;;;-15.25;100.00;102624.49;107361;1243;71774;-71
2024/01/10 09:00:16;;;;;;;97.60;52.00;;;;;;;-15.07;100.00;102620.58;107210;1241;70948;-70
2024/01/10 09:02:45;;;;;;;108.50;57.40;;;;;;;-14.78;100.00;102615.88;107238;1247;72893;-70
2024/01/10 09:05:14;;;;;;;64.50;35.20;;;;;;;-14.49;100.00;102606.25;107042;1244;63610;-70
2024/01/10 09:07:43;;;;;;;62.50;32.40;;;;;;;-14.30;100.00;102603.48;107192;1242;61893;-69
2024/01/10 09:10:13;;;;;;;93.90;49.10;;;;;;;-14.04;100.00;102602.84;107058;1240;72807;-70
2024/01/10 09:12:45;;;;;;;33.50;18.30;;;;;;;-13.81;100.00;102600.11;107205;1242;71776;-69
2024/01/10 09:15:15;;;;;;;61.30;29.40;;;;;;;-13.62;100.00;102593.32;107212;1240;69635;-69
2024/01/10 09:17:45;;;;;;;50.00;27.40;;;;;;;-13.52;100.00;102591.23;107194;1245;72434;-71
2024/01/10 09:20:14;;;;;;;87.90;42.60;;;;;;;-13.35;100.00;102587.30;107357;1241;62759;-72
2024/01/10 09:22:44;;;;;;;98.20;49.40;;;;;;;-13.19;100.00;102587.63;107252;1247;59872;-72
2024/01/10 09:25:13;;;;;;;89.20;46.80;;;;;;;-12.92;100.00;102581.54;107320;1248;72869;-71
2024/01/10 09:27:43;;;;;;;54.80;28.80;;;;;;;-12.59;100.00;102582.90;107071;1247;71520;-70
2024/01/10 09:30:16;;;;;;;55.30;25.20;;;;;;;-12.40;100.00;102581.35;107193;1245;69723;-71
2024/01/10 09:32:46;;;;;;;99.20;46.40;;;;;;;-12.33;100.00;102577.55;107191;1244;72267;-68
2024/01/10 09:35:16;;;;;;;45.20;22.00;;;;;;;-12.22;100.00;102569.70;107106;1244;61252;-70
2024/01/10 09:37:47;;;;;;;78.50;33.60;;;;;;;-12.13;100.00;102563.08;107188;1240;61514;-70
2024/01/10 09:40:16;;;;;;;43.80;20.30;;;;;;;-12.15;100.00;102564.98;107206;1253;70785;-70
2024/01/10 09:42:51;;;;;;;74.60;38.30;;;;;;;-12.11;100.00;102561.66;107249;1249;70313;-70
2024/01/10 09:45:21;;;;;;;78.20;40.40;;;;;;;-11.90;100.00;102565.38;106988;1240;70503;-70
2024/01/10 09:47:56;;;;;;;55.30;27.70;;;;;;;-11.59;100.00;102564.98;107200;1243;74328;-70
2024/01/10 09:50:27;;;;;;;73.30;39.50;;;;;;;-11.35;100.00;102557.88;107263;1242;63095;-71
2024/01/10 09:53:11;;;;;;;55.40;26.70;;;;;;;-11.25;100.00;102561.38;107277;1242;59249;-71
2024/01/10 09:55:42;;;;;;;53.90;30.90;;;;;;;-11.19;100.00;102559.96;107270;1243;70809;-70
2024/01/10 09:58:11;;;;;;;59.40;28.20;;;;;;;-11.25;100.00;102561.08;107280;1242;70234;-70
2024/01/10 10:00:40;;;;;;;54.80;28.10;;;;;;;-11.10;100.00;102556.36;107158;1244;68154;-71
2024/01/10 10:03:12;;;;;;;52.20;30.60;;;;;;;-10.99;100.00;102553.85;107163;1244;72496;-70
2024/01/10 10:05:42;;;;;;;49.20;25.80;;;;;;;-10.77;100.00;102542.84;107100;1244;60999;-69
2024/01/10 10:08:21;;;;;;;69.00;32.60;;;;;;;-10.71;100.00;102538.73;107098;1250;62312;-70
2024/01/10 10:10:51;;;;;;;78.00;40.10;;;;;;;-10.61;100.00;102535.95;107241;1243;71294;-69
2024/01/10 10:13:29;;;;;;;69.00;37.90;;;;;;;-10.34;100.00;102533.56;107081;1240;74033;-72
2024/01/10 10:16:03;;;;;;;75.70;38.90;;;;;;;-10.03;100.00;102529.62;107090;1240;70889;-70
2024/01/10 10:18:32;;;;;;;78.10;40.40;;;;;;;-9.82;100.00;102527.75;107234;1241;75591;-70
2024/01/10 10:21:20;;;;;;;74.80;42.20;;;;;;;-9.64;100.00;102522.92;107242;1242;62279;-71
2024/01/10 10:24:05;;;;;;;68.50;35.20;;;;;;;-9.46;100.00;102516.02;107212;1242;61464;-73
2024/01/10 10:26:34;;;;;;;70.70;38.80;;;;;;;-9.28;100.00;102517.21;107070;1240;70857;-70
2024/01/10 10:29:05;;;;;;;75.80;41.00;;;;;;;-9.22;100.00;102515.58;107222;1253;72513;-70
2024/01/10 10:31:35;;;;;;;70.60;36.00;;;;;;;-9.12;100.00;102510.39;107247;1240;69328;-72
2024/01/10 10:34:04;;;;;;;31.80;18.60;;;;;;;-8.98;100.00;102507.84;107036;1244;72590;-72
2024/01/10 10:36:33;;;;;;;30.60;17.90;;;;;;;-8.83;100.00;102501.15;107101;1244;60847;-71
2024/01/10 10:39:03;;;;;;;57.30;27.50;;;;;;;-8.60;100.00;102503.30;107231;1249;59170;-73
2024/01/10 10:41:36;;;;;;;63.90;34.70;;;;;;;-8.43;100.00;102498.45;107186;1249;71278;-71
2024/01/10 10:44:09;;;;;;;35.60;20.90;;;;;;;-8.37;100.00;102495.46;107161;1241;69893;-71
2024/01/10 10:46:38;;;;;;;;;;;;;;;-8.24;100.00;102492.82;107128;1244;69146;-73
2024/01/10 10:49:14;;;;;;;75.50;37.20;;;;;;;-7.98;100.00;102492.16;107065;1254;73869;-72
2024/01/10 10:51:43;;;;;;;67.00;34.50;;;;;;;-7.90;100.00;102485.62;107143;1244;59931;-71
2024/01/10 10:54:15;;;;;;;85.40;45.70;;;;;;;-7.73;100.00;102484.30;107244;1244;59071;-71
2024/01/10 10:56:45;;;;;;;79.60;43.20;;;;;;;-7.40;100.00;102482.94;107060;1243;71830;-70
2024/01/10 10:59:19;;;;;;;66.90;36.10;;;;;;;-7.01;100.00;102472.72;107113;1254;72657;-70
2024/01/10 11:01:50;;;;;;;66.70;38.20;;;;;;;-6.63;100.00;102469.01;107041;1254;70103;-69
2024/01/10 11:04:21;;;;;;;67.30;38.30;;;;;;;-6.14;100.00;102465.50;107163;1244;74694;-68
2024/01/10 11:06:50;;;;;;;55.70;28.70;;;;;;;-5.78;100.00;102456.14;107020;1244;63199;-69
2024/01/10 11:09:22;;;;;;;74.20;40.60;;;;;;;-5.66;100.00;102457.77;107177;1242;59982;-71
2024/01/10 11:12:07;;;;;;;51.70;27.70;;;;;;;-5.09;100.00;102457.27;107044;1241;73468;-69
2024/01/10 11:14:51;;;;;;;48.60;23.40;;;;;;;-4.76;100.00;102447.68;107033;1241;72696;-71
2024/01/10 11:17:44;;;;;;;37.90;21.00;;;;;;;-4.77;100.00;102440.39;107407;1251;69121;-73
2024/01/10 11:20:53;;;;;;;34.70;20.30;;;;;;;-4.94;100.00;102434.45;107427;1254;74330;-70
2024/01/10 11:23:44;;;;;;;74.40;40.70;;;;;;;-5.08;100.00;102433.66;107245;1243;60835;-72
2024/01/10 11:26:16;;;;;;;58.30;32.80;;;;;;;-4.95;100.00;102431.88;107304;1241;60044;-70
2024/01/10 11:28:46;;;;;;;54.30;29.80;;;;;;;-4.70;100.00;102426.39;107109;1243;71336;-71
2024/01/10 11:31:15;;;;;;;52.40;29.50;;;;;;;-4.54;100.00;102429.38;107115;1241;71864;-71
2024/01/10 11:33:44;;;;;;;31.20;18.60;;;;;;;-4.35;100.00;102424.61;107288;1250;70992;-70
2024/01/10 11:36:16;;;;;;;25.10;16.10;;;;;;;-4.00;100.00;102421.92;107249;1244;71988;-69
2024/01/10 11:38:54;;;;;;;42.80;22.30;;;;;;;-3.91;100.00;102420.36;107235;1243;59869;-71
2024/01/10 11:41:29;;;;;;;34.70;18.80;;;;;;;-3.93;100.00;102415.73;107242;1241;60180;-71
2024/01/10 11:44:29;;;;;;;42.70;23.40;;;;;;;-4.13;100.00;102413.40;107210;1248;73321;-71
2024/01/10 11:46:59;;;;;;;36.70;21.40;;;;;;;-4.51;100.00;102412.45;107120;1241;72099;-70
2024/01/10 11:49:28;;;;;;;38.80;23.30;;;;;;;-4.28;100.00;102406.00;107066;1244;70811;-71
2024/01/10 11:51:59;;;;;;;46.50;26.60;;;;;;;-4.36;100.00;102407.91;107260;1242;71873;-71
2024/01/10 11:54:45;;;;;;;50.40;30.20;;;;;;;-4.52;100.00;102406.64;107373;1251;61427;-71
2024/01/10 11:57:17;;;;;;;59.40;32.10;;;;;;;-4.71;100.00;102404.42;107334;1241;59430;-71
2024/01/10 11:59:46;;;;;;;42.60;21.60;;;;;;;-4.67;100.00;102403.31;107152;1242;73556;-72
2024/01/10 12:02:15;;;;;;;55.20;28.90;;;;;;;-4.52;100.00;102399.84;107182;1246;70083;-71
2024/01/10 12:04:45;;;;;;;36.30;22.70;;;;;;;-4.64;100.00;102402.34;107315;1244;69672;-70
2024/01/10 12:07:18;;;;;;;34.90;19.70;;;;;;;-4.57;100.00;102399.23;107215;1244;72944;-71
2024/01/10 12:09:48;;;;;;;59.20;28.60;;;;;;;-4.69;100.00;102401.06;107381;1243;62934;-72
2024/01/10 12:12:17;;;;;;;44.60;23.90;;;;;;;-4.89;100.00;102395.12;107320;1242;60202;-72
2024/01/10 12:14:46;;;;;;;83.10;41.00;;;;;;;-4.84;100.00;102399.96;107343;1243;71565;-71
2024/01/10 12:17:16;;;;;;;80.00;44.80;;;;;;;-4.70;100.00;102396.97;107271;1245;70306;-71
2024/01/10 12:19:47;;;;;;;94.70;54.00;;;;;;;-4.44;100.00;102394.02;107278;1244;68147;-74
2024/01/10 12:22:17;;;;;;;88.90;52.60;;;;;;;-3.75;100.00;102387.55;107323;1244;71189;-72
2024/01/10 12:24:50;;;;;;;90.80;52.00;;;;;;;-3.28;100.00;102390.00;107288;1243;61408;-72
2024/01/10 12:27:20;;;;;;;78.50;46.90;;;;;;;-2.70;100.00;102387.19;107478;1242;59882;-73
2024/01/10 12:29:51;;;;;;;68.30;43.20;;;;;;;-2.78;100.00;102392.90;107374;1244;71403;-71
2024/01/10 12:32:22;;;;;;;83.10;47.10;;;;;;;-2.14;100.00;102390.39;107518;1240;70243;-71
2024/01/10 12:35:05;;;;;;;69.60;43.70;;;;;;;-2.23;100.00;102389.30;107559;1253;69895;-71
2024/01/10 12:37:34;;;;;;;76.40;45.20;;;;;;;-2.09;100.00;102392.81;107468;1240;73855;-71
2024/01/10 12:40:04;;;;;;;71.90;44.20;;;;;;;-1.62;100.00;102394.27;107480;1242;60760;-70
2024/01/10 12:42:38;;;;;;;74.80;44.50;;;;;;;-1.34;100.00;102390.98;107522;1249;59126;-70
2024/01/10 12:45:24;;;;;;;70.60;43.30;;;;;;;-1.60;100.00;102386.42;107567;1253;70839;-71
2024/01/10 12:47:57;;;;;;;74.20;43.90;;;;;;;-1.09;100.00;102382.00;107433;1240;72183;-71
2024/01/10 12:50:26;;;;;;;46.60;27.90;;;;;;;-0.35;100.00;102382.57;107261;1253;69293;-72
2024/01/10 12:52:57;;;;;;;54.70;34.70;;;;;;;-0.15;100.00;102381.02;107275;1253;73913;-71
2024/01/10 12:55:27;;;;;;;60.50;36.10;;;;;;;-0.49;100.00;102382.93;107518;1241;59144;-72
2024/01/10 12:58:00;;;;;;;54.40;33.40;;;;;;;-0.54;100.00;102385.49;107548;1242;61299;-71
2024/01/10 13:00:35;;;;;;;48.20;28.80;;;;;;;-0.02;100.00;102386.83;107554;1243;74051;-72
2024/01/10 13:03:07;;;;;;;49.80;29.60;;;;;;;-0.10;100.00;102388.39;107220;1244;72245;-70
2024/01/10 13:05:36;;;;;;;38.20;19.80;;;;;;;-0.14;100.00;102390.45;107465;1240;69021;-69
2024/01/10 13:08:06;;;;;;;54.40;31.40;;;;;;;-0.61;100.00;102386.86;107352;1244;73376;-69
2024/01/10 13:10:36;;;;;;;57.50;34.50;;;;;;;-1.15;100.00;102391.55;107513;1242;60270;-69
2024/01/10 13:13:05;;;;;;;65.40;38.80;;;;;;;-1.51;100.00;102393.83;107405;1242;60983;-72
2024/01/10 13:15:34;;;;;;;55.10;32.20;;;;;;;-1.92;100.00;102393.27;107278;1240;73734;-69
2024/01/10 13:18:04;;;;;;;59.80;35.10;;;;;;;-1.65;100.00;102390.00;107401;1253;72350;-71
2024/01/10 13:20:34;;;;;;;65.10;39.60;;;;;;;-1.48;100.00;102389.21;107574;1243;67894;-72
2024/01/10 13:23:03;;;;;;;61.00;36.20;;;;;;;-1.46;100.00;102389.91;107351;1244;71260;-70
2024/01/10 13:25:32;;;;;;;65.20;38.80;;;;;;;-1.63;100.00;102390.17;107548;1240;59042;-74
2024/01/10 13:28:01;;;;;;;70.40;41.70;;;;;;;-1.49;100.00;102392.12;107574;1240;59457;-71
2024/01/10 13:30:30;;;;;;;62.80;37.60;;;;;;;-1.05;100.00;102389.88;107400;1253;70808;-71
2024/01/10 13:32:59;;;;;;;49.70;28.10;;;;;;;-0.86;100.00;102390.25;107439;1244;70646;-72
2024/01/10 13:35:28;;;;;;;48.80;27.60;;;;;;;-0.69;100.00;102386.70;107486;1240;69577;-73
2024/01/10 13:37:57;;;;;;;53.00;31.30;;;;;;;-0.95;100.00;102384.77;107459;1240;70899;-71
2024/01/10 13:40:26;;;;;;;67.00;38.10;;;;;;;-1.07;100.00;102385.42;107575;1244;58974;-71
2024/01/10 13:42:55;;;;;;;64.40;37.40;;;;;;;-1.14;100.00;102380.44;107609;1251;60531;-71
2024/01/10 13:45:24;;;;;;;64.50;38.50;;;;;;;-0.69;100.00;102382.24;107534;1243;70761;-70
2024/01/10 13:47:53;;;;;;;47.20;22.20;;;;;;;-0.24;100.00;102379.67;107327;1250;70362;-72
2024/01/10 13:50:24;;;;;;;63.90;39.90;;;;;;;-0.34;100.00;102367.69;107644;1244;67942;-72
2024/01/10 13:52:53;;;;;;;59.40;34.10;;;;;;;-0.68;100.00;102371.81;107599;1244;71893;-70
2024/01/10 13:55:24;;;;;;;61.70;35.10;;;;;;;-0.95;100.00;102375.36;107597;1240;58770;-71
2024/01/10 13:57:53;;;;;;;56.30;33.20;;;;;;;-1.21;100.00;102368.29;107424;1246;60205;-70
2024/01/10 14:00:22;;;;;;;72.10;39.40;;;;;;;-1.53;100.00;102368.52;107558;1253;71708;-72
2024/01/10 14:02:54;;;;;;;71.90;39.80;;;;;;;-1.91;100.00;102369.54;107538;1240;71229;-73
2024/01/10 14:05:23;;;;;;;73.10;40.00;;;;;;;-2.16;100.00;102361.02;107464;1253;70258;-74
2024/01/10 14:07:53;;;;;;;72.70;41.00;;;;;;;-2.21;100.00;102360.98;107325;1240;73744;-72
2024/01/10 14:10:21;;;;;;;90.10;50.60;;;;;;;-2.46;100.00;102362.66;107549;1245;60745;-72
2024/01/10 14:12:51;;;;;;;96.70;52.00;;;;;;;-2.85;100.00;102363.70;107221;1247;59455;-74
2024/01/10 14:15:20;;;;;;;85.00;48.20;;;;;;;-2.84;100.00;102362.86;107555;1240;71549;-72
2024/01/10 14:17:49;;;;;;;92.90;53.40;;;;;;;-2.96;100.00;102361.02;107619;1243;69623;-74
2024/01/10 14:20:21;;;;;;;92.30;53.00;;;;;;;-3.11;100.00;102362.42;107458;1241;69342;-74
2024/01/10 14:22:50;;;;;;;90.90;51.50;;;;;;;-3.34;100.00;102364.73;107689;1240;74296;-71
2024/01/10 14:25:20;;;;;;;87.30;51.80;;;;;;;-3.68;100.00;102365.85;107509;1253;59441;-71
2024/01/10 14:27:49;;;;;;;87.20;50.80;;;;;;;-4.33;100.00;102371.23;107609;1242;61759;-71
2024/01/10 14:30:19;;;;;;;82.40;47.80;;;;;;;-4.72;100.00;102377.39;107545;1242;72205;-71
2024/01/10 14:32:48;;;;;;;86.00;49.10;;;;;;;-5.04;100.00;102366.46;107541;1241;70494;-70
2024/01/10 14:35:18;;;;;;;82.50;47.10;;;;;;;-5.18;100.00;102372.65;107571;1243;68659;-70
2024/01/10 14:37:48;;;;;;;90.00;49.90;;;;;;;-5.34;100.00;102373.89;107626;1243;74225;-72
2024/01/10 14:40:17;;;;;;;88.90;49.20;;;;;;;-5.53;100.00;102372.14;107515;1242;60938;-71
2024/01/10 14:42:46;;;;;;;94.50;51.80;;;;;;;-5.69;100.00;102366.20;107572;1240;59441;-73
2024/01/10 14:45:16;;;;;;;87.90;49.60;;;;;;;-5.85;100.00;102366.71;107376;1244;72797;-74
2024/01/10 14:47:44;;;;;;;76.70;43.00;;;;;;;-6.03;100.00;102370.91;107342;1253;72435;-71
2024/01/10 14:50:13;;;;;;;93.60;53.50;;;;;;;-6.22;100.00;102368.97;107595;1242;70607;-72
2024/01/10 14:52:42;;;;;;;104.40;60.40;;;;;;;-6.50;100.00;102366.44;107603;1242;71702;-71
2024/01/10 14:55:11;;;;;;;100.80;56.00;;;;;;;-6.72;100.00;102368.30;107357;1244;59052;-73
2024/01/10 14:57:40;;;;;;;121.10;68.90;;;;;;;-6.85;100.00;102364.39;107521;1242;58935;-72
2024/01/10 15:00:10;;;;;;;123.00;68.50;;;;;;;-6.93;100.00;102365.05;107346;1246;72506;-71
2024/01/10 15:02:39;;;;;;;115.40;65.60;;;;;;;-7.02;100.00;102361.92;107587;1244;71068;-73
2024/01/10 15:05:11;;;;;;;118.50;62.50;;;;;;;-7.11;100.00;102368.80;107602;1253;68635;-72
2024/01/10 15:07:40;;;;;;;117.20;65.50;;;;;;;-7.19;100.00;102370.61;107532;1253;71301;-71
2024/01/10 15:10:11;;;;;;;128.30;68.10;;;;;;;-7.25;100.00;102370.98;107376;1241;62399;-71
2024/01/10 15:12:40;;;;;;;122.60;64.20;;;;;;;-7.31;100.00;102374.70;107504;1244;60562;-74
2024/01/10 15:15:10;;;;;;;110.00;61.00;;;;;;;-7.41;100.00;102368.48;107545;1245;71505;-73
2024/01/10 15:17:39;;;;;;;106.10;59.40;;;;;;;-7.39;100.00;102375.65;107386;1245;71294;-73
2024/01/10 15:20:08;;;;;;;103.10;55.20;;;;;;;-7.45;100.00;102374.46;107367;1240;69687;-71
2024/01/10 15:22:38;;;;;;;97.50;55.40;;;;;;;-7.52;100.00;102370.23;107315;1253;73716;-74
2024/01/10 15:25:08;;;;;;;106.40;58.80;;;;;;;-7.57;100.00;102371.41;107487;1241;59888;-74
2024/01/10 15:27:39;;;;;;;106.50;60.40;;;;;;;-7.65;100.00;102370.85;107269;1246;62008;-79
2024/01/10 15:30:10;;;;;;;114.50;63.70;;;;;;;-7.74;100.00;102370.60;107480;1244;73615;-74
2024/01/10 15:32:49;;;;;;;113.10;62.30;;;;;;;-7.87;100.00;102369.35;107560;1243;72649;-71
2024/01/10 15:35:18;;;;;;;106.30;58.90;;;;;;;-7.94;100.00;102369.14;107532;1247;68498;-72
2024/01/10 15:37:47;;;;;;;127.70;62.00;;;;;;;-8.07;100.00;102368.27;107432;1244;73791;-73
2024/01/10 15:40:16;;;;;;;131.90;67.10;;;;;;;-8.18;100.00;102366.23;107270;1244;62574;-72
2024/01/10 15:42:45;;;;;;;129.20;63.80;;;;;;;-8.20;100.00;102366.66;107456;1240;60993;-74
2024/01/10 15:45:14;;;;;;;120.70;63.60;;;;;;;-8.28;100.00;102367.77;107529;1248;73863;-74
2024/01/10 15:47:44;;;;;;;129.70;67.00;;;;;;;-8.34;100.00;102364.56;107474;1243;70758;-74
2024/01/10 15:50:15;;;;;;;148.10;73.00;;;;;;;-8.55;100.00;102348.39;107100;1240;71453;-73
2024/01/10 15:52:44;;;;;;;129.50;67.50;;;;;;;-8.46;100.00;102376.52;107551;1243;74935;-74
2024/01/10 15:55:14;;;;;;;125.10;69.80;;;;;;;-8.49;100.00;102376.27;107457;1243;59943;-74
2024/01/10 15:57:46;;;;;;;116.60;64.10;;;;;;;-8.55;100.00;102380.98;107588;1240;61026;-74
2024/01/10 16:00:21;;;;;;;115.60;64.40;;;;;;;-8.60;100.00;102374.57;107507;1240;73306;-77
2024/01/10 16:02:51;;;;;;;109.60;58.50;;;;;;;-8.73;100.00;102375.81;107497;1240;73596;-77
2024/01/10 16:05:20;;;;;;;119.60;63.50;;;;;;;-8.79;100.00;102377.98;107500;1240;70909;-79
2024/01/10 16:07:49;;;;;;;117.30;63.20;;;;;;;-8.85;100.00;102380.16;107599;1252;74177;-77
2024/01/10 16:10:18;;;;;;;132.70;69.80;;;;;;;-8.88;100.00;102379.70;107544;1240;62184;-77
2024/01/10 16:12:47;;;;;;;246.60;124.80;;;;;;;-8.86;100.00;102377.45;107594;1249;60112;-80
2024/01/10 16:15:16;;;;;;;284.60;127.20;;;;;;;-8.90;100.00;102373.91;107590;1245;71591;-79
2024/01/10 16:17:52;;;;;;;220.10;98.60;;;;;;;-8.98;100.00;102365.85;109641;1242;70398;-79
2024/01/10 16:20:22;;;;;;;494.00;182.20;;;;;;;-9.03;100.00;102364.66;109440;1240;70400;-78
2024/01/10 16:22:53;;;;;;;370.50;149.50;;;;;;;-9.11;100.00;102364.90;109707;1240;70841;-71
2024/01/10 16:25:25;;;;;;;195.90;98.40;;;;;;;-9.11;100.00;102359.02;109557;1244;61236;-71
2024/01/10 16:27:54;;;;;;;219.50;121.70;;;;;;;-9.12;100.00;102359.97;109505;1240;61030;-72
2024/01/10 16:30:23;;;;;;;174.20;94.80;;;;;;;-9.07;100.00;102362.02;109577;1241;74908;-72
2024/01/10 16:32:54;;;;;;;140.40;72.30;;;;;;;-9.05;100.00;102362.93;109737;1240;72610;-73
2024/01/10 16:35:23;;;;;;;115.50;58.90;;;;;;;-9.19;100.00;102355.87;109774;1242;69011;-73
2024/01/10 16:37:54;;;;;;;111.60;59.20;;;;;;;-9.18;100.00;102354.71;109737;1240;74318;-73
2024/01/10 16:40:24;;;;;;;105.10;56.30;;;;;;;-9.25;100.00;102356.80;109727;1240;64012;-72
2024/01/10 16:43:00;;;;;;;97.30;54.30;;;;;;;-9.25;100.00;102358.84;109752;1240;60618;-72
2024/01/10 16:45:34;;;;;;;100.80;51.20;;;;;;;-9.31;100.00;102354.27;109506;1240;74210;-71
2024/01/10 16:48:03;;;;;;;83.90;43.20;;;;;;;-9.32;100.00;102359.60;109586;1240;73167;-74
2024/01/10 16:50:32;;;;;;;92.10;50.10;;;;;;;-9.40;100.00;102357.47;109769;1240;68359;-73
2024/01/10 16:53:03;;;;;;;92.50;48.00;;;;;;;-9.49;100.00;102357.84;109516;1240;71880;-72
2024/01/10 16:55:32;;;;;;;99.20;50.50;;;;;;;-9.58;100.00;102360.55;109726;1240;60151;-72
2024/01/10 16:58:01;;;;;;;91.70;50.20;;;;;;;-9.56;100.00;102359.61;109626;1240;61268;-71
2024/01/10 17:00:29;;;;;;;97.60;51.60;;;;;;;-9.65;100.00;102360.47;109751;1240;73283;-71
2024/01/10 17:02:59;;;;;;;94.20;53.10;;;;;;;-9.69;100.00;102357.61;109738;1240;70034;-71
2024/01/10 17:05:28;;;;;;;94.30;55.00;;;;;;;-9.71;100.00;102357.05;109762;1240;70810;-70
2024/01/10 17:07:59;;;;;;;99.90;53.20;;;;;;;-9.69;100.00;102345.83;109732;1240;74053;-73
2024/01/10 17:10:28;;;;;;;98.30;53.70;;;;;;;-9.60;100.00;102354.08;109755;1241;61402;-73
2024/01/10 17:12:57;;;;;;;102.90;54.50;;;;;;;-9.56;100.00;102355.73;109450;1240;61299;-72
2024/01/10 17:15:29;;;;;;;103.40;55.50;;;;;;;-9.58;100.00;102355.66;109800;1239;74018;-73
2024/01/10 17:18:00;;;;;;;95.20;50.50;;;;;;;-9.65;100.00;102353.70;109764;1239;70771;-70
2024/01/10 17:20:29;;;;;;;92.40;47.40;;;;;;;-9.72;100.00;102352.79;109619;1239;69543;-73
2024/01/10 17:23:01;;;;;;;94.90;48.90;;;;;;;-9.73;100.00;102350.73;109808;1240;71736;-73
2024/01/10 17:25:31;;;;;;;93.10;50.40;;;;;;;-9.79;100.00;102345.61;109756;1241;62446;-71
2024/01/10 17:27:59;;;;;;;92.60;48.90;;;;;;;-9.79;100.00;102348.82;109774;1240;61476;-72
2024/01/10 17:30:29;;;;;;;101.50;54.80;;;;;;;-9.85;100.00;102343.19;109782;1241;72164;-71
2024/01/10 17:32:59;;;;;;;98.00;50.60;;;;;;;-9.93;100.00;102342.04;109758;1241;69481;-71
2024/01/10 17:35:27;;;;;;;90.70;47.10;;;;;;;-9.96;100.00;102339.73;109620;1240;69566;-72
2024/01/10 17:37:56;;;;;;;97.80;51.70;;;;;;;-10.03;100.00;102339.99;109784;1239;73394;-73
2024/01/10 17:40:26;;;;;;;90.20;46.60;;;;;;;-10.03;100.00;102336.11;109826;1240;63481;-71
2024/01/10 17:42:55;;;;;;;109.50;54.00;;;;;;;-10.06;100.00;102338.86;109595;1240;61173;-71
2024/01/10 17:45:24;;;;;;;96.20;49.00;;;;;;;-10.11;100.00;102331.93;109669;1240;71460;-71
2024/01/10 17:47:53;;;;;;;106.70;53.40;;;;;;;-10.10;100.00;102333.13;109622;1241;70281;-70
2024/01/10 17:50:24;;;;;;;98.40;51.60;;;;;;;-10.11;100.00;102330.08;109787;1240;69623;-71
2024/01/10 17:52:54;;;;;;;105.00;49.00;;;;;;;-10.13;100.00;102326.80;109613;1241;74428;-72